sensor_id;sensor_type;location;lat;lon;timestamp;pressure;altitude;pressure_sealevel;temperature;humidity
28004;BME280;15330;51.234;6.754;2023-03-22T00:00:34;100637.88;;;11.09;96.39
28004;BME280;15330;51.234;6.754;2023-03-22T00:02:59;100632.53;;;11.09;96.38
28004;BME280;15330;51.234;6.754;2023-03-22T00:05:25;100627.00;;;11.02;96.74
28004;BME280;15330;51.234;6.754;2023-03-22T00:07:50;100620.66;;;11.03;96.63
28004;BME280;15330;51.234;6.754;2023-03-22T00:10:18;100628.38;;;10.98;96.69
28004;BME280;15330;51.234;6.754;2023-03-22T00:12:44;100620.16;;;11.00;96.64
28004;BME280;15330;51.234;6.754;2023-03-22T00:15:10;100624.84;;;11.06;96.72
28004;BME280;15330;51.234;6.754;2023-03-22T00:17:35;100622.00;;;10.99;96.78
28004;BME280;15330;51.234;6.754;2023-03-22T00:20:02;100619.31;;;11.08;96.55
28004;BME280;15330;51.234;6.754;2023-03-22T00:22:31;100605.94;;;10.99;96.85
28004;BME280;15330;51.234;6.754;2023-03-22T00:24:56;100613.97;;;10.99;97.08
28004;BME280;15330;51.234;6.754;2023-03-22T00:27:21;100600.41;;;11.01;97.04
28004;BME280;15330;51.234;6.754;2023-03-22T00:29:47;100605.13;;;10.99;97.34
28004;BME280;15330;51.234;6.754;2023-03-22T00:32:12;100606.31;;;10.88;97.76
28004;BME280;15330;51.234;6.754;2023-03-22T00:34:37;100604.09;;;10.92;98.04
28004;BME280;15330;51.234;6.754;2023-03-22T00:37:03;100602.63;;;10.89;98.28
28004;BME280;15330;51.234;6.754;2023-03-22T00:39:28;100596.25;;;10.90;98.37
28004;BME280;15330;51.234;6.754;2023-03-22T00:41:54;100588.06;;;10.92;97.91
28004;BME280;15330;51.234;6.754;2023-03-22T00:44:19;100592.56;;;10.91;98.38
28004;BME280;15330;51.234;6.754;2023-03-22T00:46:44;100581.84;;;10.91;98.34
28004;BME280;15330;51.234;6.754;2023-03-22T00:49:10;100581.69;;;10.93;98.91
28004;BME280;15330;51.234;6.754;2023-03-22T00:51:36;100577.50;;;10.90;98.65
28004;BME280;15330;51.234;6.754;2023-03-22T00:54:01;100578.69;;;10.96;98.65
28004;BME280;15330;51.234;6.754;2023-03-22T00:56:27;100572.16;;;10.90;98.85
28004;BME280;15330;51.234;6.754;2023-03-22T00:58:53;100558.50;;;10.77;99.11
28004;BME280;15330;51.234;6.754;2023-03-22T01:01:18;100570.69;;;10.80;99.54
28004;BME280;15330;51.234;6.754;2023-03-22T01:03:44;100570.34;;;10.83;99.45
28004;BME280;15330;51.234;6.754;2023-03-22T01:06:10;100563.31;;;10.82;99.68
28004;BME280;15330;51.234;6.754;2023-03-22T01:08:35;100567.50;;;10.84;99.54
28004;BME280;15330;51.234;6.754;2023-03-22T01:11:04;100562.66;;;10.88;99.44
28004;BME280;15330;51.234;6.754;2023-03-22T01:13:30;100555.47;;;10.80;100.00
28004;BME280;15330;51.234;6.754;2023-03-22T01:15:55;100555.00;;;10.77;100.00
28004;BME280;15330;51.234;6.754;2023-03-22T01:18:21;100554.63;;;10.80;100.00
28004;BME280;15330;51.234;6.754;2023-03-22T01:20:46;100551.31;;;10.78;100.00
28004;BME280;15330;51.234;6.754;2023-03-22T01:23:12;100547.78;;;10.77;100.00
28004;BME280;15330;51.234;6.754;2023-03-22T01:25:37;100547.00;;;10.69;100.00
28004;BME280;15330;51.234;6.754;2023-03-22T01:28:03;100543.66;;;10.58;100.00
28004;BME280;15330;51.234;6.754;2023-03-22T01:30:30;100539.63;;;10.62;100.00
28004;BME280;15330;51.234;6.754;2023-03-22T01:32:56;100539.66;;;10.54;100.00
28004;BME280;15330;51.234;6.754;2023-03-22T01:35:21;100536.94;;;10.62;100.00
28004;BME280;15330;51.234;6.754;2023-03-22T01:37:47;100528.41;;;10.59;100.00
28004;BME280;15330;51.234;6.754;2023-03-22T01:40:13;100530.63;;;10.55;100.00
28004;BME280;15330;51.234;6.754;2023-03-22T01:42:39;100524.28;;;10.56;100.00
28004;BME280;15330;51.234;6.754;2023-03-22T01:47:47;100513.41;;;10.42;100.00
28004;BME280;15330;51.234;6.754;2023-03-22T01:50:16;100515.63;;;10.38;100.00
28004;BME280;15330;51.234;6.754;2023-03-22T01:52:43;100506.91;;;10.28;100.00
28004;BME280;15330;51.234;6.754;2023-03-22T01:55:08;100512.75;;;10.32;100.00
28004;BME280;15330;51.234;6.754;2023-03-22T01:57:34;100503.91;;;10.31;100.00
28004;BME280;15330;51.234;6.754;2023-03-22T02:00:22;100501.56;;;10.28;100.00
28004;BME280;15330;51.234;6.754;2023-03-22T02:02:49;100501.06;;;10.33;100.00
28004;BME280;15330;51.234;6.754;2023-03-22T02:05:16;100495.88;;;10.31;100.00
28004;BME280;15330;51.234;6.754;2023-03-22T02:07:43;100495.72;;;10.16;100.00
28004;BME280;15330;51.234;6.754;2023-03-22T02:10:17;100494.06;;;10.23;100.00
28004;BME280;15330;51.234;6.754;2023-03-22T02:15:28;100486.38;;;10.20;100.00
28004;BME280;15330;51.234;6.754;2023-03-22T02:18:05;100486.69;;;10.01;100.00
28004;BME280;15330;51.234;6.754;2023-03-22T02:23:47;100475.66;;;10.12;100.00
28004;BME280;15330;51.234;6.754;2023-03-22T02:29:42;100468.81;;;10.10;100.00
28004;BME280;15330;51.234;6.754;2023-03-22T02:38:10;100452.09;;;10.08;100.00
28004;BME280;15330;51.234;6.754;2023-03-22T02:40:51;100442.09;;;10.10;100.00
28004;BME280;15330;51.234;6.754;2023-03-22T02:51:21;100439.28;;;9.95;100.00
28004;BME280;15330;51.234;6.754;2023-03-22T02:54:19;100438.44;;;10.03;100.00
28004;BME280;15330;51.234;6.754;2023-03-22T02:56:52;100439.59;;;10.00;100.00
28004;BME280;15330;51.234;6.754;2023-03-22T02:59:21;100437.41;;;9.87;100.00
28004;BME280;15330;51.234;6.754;2023-03-22T03:01:51;100435.59;;;9.88;100.00
28004;BME280;15330;51.234;6.754;2023-03-22T03:04:23;100433.91;;;9.87;100.00
28004;BME280;15330;51.234;6.754;2023-03-22T03:06:51;100436.09;;;9.83;100.00
28004;BME280;15330;51.234;6.754;2023-03-22T03:09:19;100440.94;;;9.88;100.00
28004;BME280;15330;51.234;6.754;2023-03-22T03:11:50;100445.13;;;9.82;100.00
28004;BME280;15330;51.234;6.754;2023-03-22T03:14:24;100439.44;;;9.77;100.00
28004;BME280;15330;51.234;6.754;2023-03-22T03:19:36;100440.94;;;9.80;100.00
28004;BME280;15330;51.234;6.754;2023-03-22T03:22:49;100433.94;;;9.79;100.00
28004;BME280;15330;51.234;6.754;2023-03-22T03:37:17;100424.56;;;9.67;100.00
28004;BME280;15330;51.234;6.754;2023-03-22T03:39:50;100423.09;;;9.64;100.00
28004;BME280;15330;51.234;6.754;2023-03-22T03:42:17;100411.22;;;9.67;100.00
28004;BME280;15330;51.234;6.754;2023-03-22T03:44:43;100416.75;;;9.73;100.00
28004;BME280;15330;51.234;6.754;2023-03-22T03:47:09;100412.72;;;9.69;100.00
28004;BME280;15330;51.234;6.754;2023-03-22T03:49:36;100414.75;;;9.75;100.00
28004;BME280;15330;51.234;6.754;2023-03-22T03:52:03;100412.56;;;9.79;100.00
28004;BME280;15330;51.234;6.754;2023-03-22T03:54:29;100418.75;;;9.71;100.00
28004;BME280;15330;51.234;6.754;2023-03-22T03:56:55;100430.09;;;9.73;100.00
28004;BME280;15330;51.234;6.754;2023-03-22T03:59:20;100420.91;;;9.84;100.00
28004;BME280;15330;51.234;6.754;2023-03-22T04:01:46;100423.22;;;9.87;100.00
28004;BME280;15330;51.234;6.754;2023-03-22T04:04:22;100418.25;;;9.76;100.00
28004;BME280;15330;51.234;6.754;2023-03-22T04:06:55;100424.59;;;9.83;100.00
28004;BME280;15330;51.234;6.754;2023-03-22T04:09:25;100421.59;;;9.86;100.00
28004;BME280;15330;51.234;6.754;2023-03-22T04:11:52;100433.75;;;9.80;100.00
28004;BME280;15330;51.234;6.754;2023-03-22T04:14:18;100422.22;;;9.88;100.00
28004;BME280;15330;51.234;6.754;2023-03-22T04:16:43;100417.25;;;9.85;100.00
28004;BME280;15330;51.234;6.754;2023-03-22T04:19:09;100418.91;;;9.86;100.00
28004;BME280;15330;51.234;6.754;2023-03-22T04:21:34;100420.56;;;9.87;100.00
28004;BME280;15330;51.234;6.754;2023-03-22T04:24:00;100416.41;;;9.84;100.00
28004;BME280;15330;51.234;6.754;2023-03-22T04:26:26;100417.91;;;9.79;100.00
28004;BME280;15330;51.234;6.754;2023-03-22T04:28:51;100418.25;;;9.76;100.00
28004;BME280;15330;51.234;6.754;2023-03-22T04:31:16;100408.22;;;9.78;100.00
28004;BME280;15330;51.234;6.754;2023-03-22T04:33:42;100415.41;;;9.69;100.00
28004;BME280;15330;51.234;6.754;2023-03-22T04:36:11;100402.38;;;9.74;100.00
28004;BME280;15330;51.234;6.754;2023-03-22T04:38:40;100400.72;;;9.73;100.00
28004;BME280;15330;51.234;6.754;2023-03-22T04:41:05;100402.72;;;9.71;100.00
28004;BME280;15330;51.234;6.754;2023-03-22T04:43:31;100392.22;;;9.62;100.00
28004;BME280;15330;51.234;6.754;2023-03-22T04:46:00;100398.38;;;9.62;100.00
28004;BME280;15330;51.234;6.754;2023-03-22T04:48:26;100396.88;;;9.60;100.00
28004;BME280;15330;51.234;6.754;2023-03-22T04:50:52;100400.22;;;9.70;100.00
28004;BME280;15330;51.234;6.754;2023-03-22T04:53:17;100389.22;;;9.65;100.00
28004;BME280;15330;51.234;6.754;2023-03-22T04:55:42;100400.72;;;9.73;100.00
28004;BME280;15330;51.234;6.754;2023-03-22T04:58:09;100402.38;;;9.74;100.00
28004;BME280;15330;51.234;6.754;2023-03-22T05:00:35;100402.88;;;9.78;100.00
28004;BME280;15330;51.234;6.754;2023-03-22T05:03:02;100398.19;;;9.80;100.00
28004;BME280;15330;51.234;6.754;2023-03-22T05:05:28;100404.06;;;9.83;100.00
28004;BME280;15330;51.234;6.754;2023-03-22T05:07:54;100391.03;;;9.80;100.00
28004;BME280;15330;51.234;6.754;2023-03-22T05:10:20;100396.19;;;9.82;100.00
28004;BME280;15330;51.234;6.754;2023-03-22T05:12:46;100398.34;;;9.86;100.00
28004;BME280;15330;51.234;6.754;2023-03-22T05:15:12;100392.84;;;9.88;100.00
28004;BME280;15330;51.234;6.754;2023-03-22T05:17:38;100403.53;;;9.88;100.00
28004;BME280;15330;51.234;6.754;2023-03-22T05:20:03;100401.84;;;9.87;100.00
28004;BME280;15330;51.234;6.754;2023-03-22T05:22:34;100406.72;;;9.91;100.00
28004;BME280;15330;51.234;6.754;2023-03-22T05:25:03;100411.38;;;9.98;100.00
28004;BME280;15330;51.234;6.754;2023-03-22T05:27:29;100412.84;;;10.08;100.00
28004;BME280;15330;51.234;6.754;2023-03-22T05:29:55;100407.50;;;10.08;100.00
28004;BME280;15330;51.234;6.754;2023-03-22T05:32:20;100398.16;;;10.12;100.00
28004;BME280;15330;51.234;6.754;2023-03-22T05:34:49;100411.38;;;10.06;100.00
28004;BME280;15330;51.234;6.754;2023-03-22T05:37:15;100408.00;;;10.12;100.00
28004;BME280;15330;51.234;6.754;2023-03-22T05:39:41;100404.00;;;10.16;100.00
28004;BME280;15330;51.234;6.754;2023-03-22T05:42:06;100398.31;;;10.19;100.00
28004;BME280;15330;51.234;6.754;2023-03-22T05:44:32;100402.50;;;10.21;100.00
28004;BME280;15330;51.234;6.754;2023-03-22T05:46:57;100390.47;;;10.09;100.00
28004;BME280;15330;51.234;6.754;2023-03-22T05:49:22;100403.16;;;10.15;100.00
28004;BME280;15330;51.234;6.754;2023-03-22T05:51:48;100397.84;;;10.23;100.00
28004;BME280;15330;51.234;6.754;2023-03-22T05:54:14;100406.69;;;10.24;100.00
28004;BME280;15330;51.234;6.754;2023-03-22T05:56:40;100396.97;;;10.31;100.00
28004;BME280;15330;51.234;6.754;2023-03-22T05:59:05;100397.97;;;10.38;100.00
28004;BME280;15330;51.234;6.754;2023-03-22T06:01:31;100387.06;;;10.40;100.00
28004;BME280;15330;51.234;6.754;2023-03-22T06:03:57;100384.78;;;10.37;100.00
28004;BME280;15330;51.234;6.754;2023-03-22T06:06:23;100398.09;;;10.45;100.00
28004;BME280;15330;51.234;6.754;2023-03-22T06:08:48;100386.06;;;10.41;100.00
28004;BME280;15330;51.234;6.754;2023-03-22T06:11:13;100396.97;;;10.31;100.00
28004;BME280;15330;51.234;6.754;2023-03-22T06:13:39;100404.78;;;10.41;100.00
28004;BME280;15330;51.234;6.754;2023-03-22T06:16:05;100398.28;;;10.43;100.00
28004;BME280;15330;51.234;6.754;2023-03-22T06:18:31;100404.63;;;10.42;100.00
28004;BME280;15330;51.234;6.754;2023-03-22T06:20:57;100408.28;;;10.41;100.00
28004;BME280;15330;51.234;6.754;2023-03-22T06:23:23;100413.47;;;10.43;100.00
28004;BME280;15330;51.234;6.754;2023-03-22T06:25:49;100406.78;;;10.39;100.00
28004;BME280;15330;51.234;6.754;2023-03-22T06:28:14;100409.47;;;10.39;100.00
28004;BME280;15330;51.234;6.754;2023-03-22T06:30:40;100419.16;;;10.40;100.00
28004;BME280;15330;51.234;6.754;2023-03-22T06:33:05;100406.97;;;10.45;100.00
28004;BME280;15330;51.234;6.754;2023-03-22T06:35:31;100411.47;;;10.45;100.00
28004;BME280;15330;51.234;6.754;2023-03-22T06:37:58;100403.25;;;10.54;100.00
28004;BME280;15330;51.234;6.754;2023-03-22T06:40:23;100392.56;;;10.54;100.00
28004;BME280;15330;51.234;6.754;2023-03-22T06:42:48;100396.19;;;10.61;100.00
28004;BME280;15330;51.234;6.754;2023-03-22T06:45:14;100394.00;;;10.65;100.00
28004;BME280;15330;51.234;6.754;2023-03-22T06:47:41;100389.63;;;10.72;100.00
28004;BME280;15330;51.234;6.754;2023-03-22T06:50:07;100386.91;;;10.80;100.00
28004;BME280;15330;51.234;6.754;2023-03-22T06:52:33;100384.75;;;10.76;100.00
28004;BME280;15330;51.234;6.754;2023-03-22T06:54:58;100385.09;;;11.03;99.60
28004;BME280;15330;51.234;6.754;2023-03-22T06:57:23;100381.53;;;11.11;98.92
28004;BME280;15330;51.234;6.754;2023-03-22T06:59:49;100378.25;;;11.01;99.32
28004;BME280;15330;51.234;6.754;2023-03-22T07:02:15;100377.91;;;11.04;98.33
28004;BME280;15330;51.234;6.754;2023-03-22T07:04:40;100386.59;;;11.06;97.94
28004;BME280;15330;51.234;6.754;2023-03-22T07:07:06;100375.56;;;11.09;98.35
28004;BME280;15330;51.234;6.754;2023-03-22T07:09:31;100383.53;;;11.17;97.77
28004;BME280;15330;51.234;6.754;2023-03-22T07:11:57;100379.19;;;11.16;97.51
28004;BME280;15330;51.234;6.754;2023-03-22T07:14:22;100375.16;;;11.20;97.63
28004;BME280;15330;51.234;6.754;2023-03-22T07:16:48;100371.16;;;11.39;96.98
28004;BME280;15330;51.234;6.754;2023-03-22T07:19:13;100373.63;;;11.63;95.62
28004;BME280;15330;51.234;6.754;2023-03-22T07:21:39;100371.00;;;11.78;95.11
28004;BME280;15330;51.234;6.754;2023-03-22T07:24:04;100383.34;;;12.17;93.23
28004;BME280;15330;51.234;6.754;2023-03-22T07:26:30;100370.41;;;12.49;91.79
28004;BME280;15330;51.234;6.754;2023-03-22T07:28:56;100366.16;;;12.40;90.55
28004;BME280;15330;51.234;6.754;2023-03-22T07:31:21;100374.47;;;12.75;88.99
28004;BME280;15330;51.234;6.754;2023-03-22T07:33:47;100373.94;;;12.65;89.51
28004;BME280;15330;51.234;6.754;2023-03-22T07:36:12;100365.34;;;12.91;88.59
28004;BME280;15330;51.234;6.754;2023-03-22T07:38:38;100362.72;;;12.76;88.57
28004;BME280;15330;51.234;6.754;2023-03-22T07:41:03;100369.94;;;12.61;88.82
28004;BME280;15330;51.234;6.754;2023-03-22T07:43:29;100372.44;;;12.62;89.18
28004;BME280;15330;51.234;6.754;2023-03-22T07:45:55;100381.16;;;12.20;90.03
28004;BME280;15330;51.234;6.754;2023-03-22T07:48:21;100374.75;;;12.06;91.29
28004;BME280;15330;51.234;6.754;2023-03-22T07:50:47;100375.59;;;12.07;92.02
28004;BME280;15330;51.234;6.754;2023-03-22T07:53:13;100375.22;;;12.10;91.92
28004;BME280;15330;51.234;6.754;2023-03-22T07:55:39;100375.03;;;11.97;92.29
28004;BME280;15330;51.234;6.754;2023-03-22T07:58:06;100380.91;;;11.77;92.26
28004;BME280;15330;51.234;6.754;2023-03-22T08:00:32;100383.63;;;11.69;92.63
28004;BME280;15330;51.234;6.754;2023-03-22T08:02:58;100385.66;;;11.67;93.12
28004;BME280;15330;51.234;6.754;2023-03-22T08:05:24;100389.34;;;11.66;92.51
28004;BME280;15330;51.234;6.754;2023-03-22T08:07:49;100384.63;;;11.68;92.58
28004;BME280;15330;51.234;6.754;2023-03-22T08:10:15;100393.34;;;11.70;92.33
28004;BME280;15330;51.234;6.754;2023-03-22T08:12:41;100393.69;;;11.67;89.13
28004;BME280;15330;51.234;6.754;2023-03-22T08:15:07;100397.84;;;11.70;89.16
28004;BME280;15330;51.234;6.754;2023-03-22T08:17:33;100405.06;;;11.69;88.29
28004;BME280;15330;51.234;6.754;2023-03-22T08:19:58;100393.03;;;11.65;87.97
28004;BME280;15330;51.234;6.754;2023-03-22T08:22:23;100392.50;;;11.70;87.80
28004;BME280;15330;51.234;6.754;2023-03-22T08:24:53;100390.81;;;11.69;87.83
28004;BME280;15330;51.234;6.754;2023-03-22T08:27:19;100402.22;;;11.71;87.48
28004;BME280;15330;51.234;6.754;2023-03-22T08:29:44;100400.06;;;11.66;87.57
28004;BME280;15330;51.234;6.754;2023-03-22T08:32:12;100397.03;;;11.69;87.96
28004;BME280;15330;51.234;6.754;2023-03-22T08:34:40;100410.91;;;11.73;88.05
28004;BME280;15330;51.234;6.754;2023-03-22T08:37:06;100394.59;;;11.83;88.55
28004;BME280;15330;51.234;6.754;2023-03-22T08:39:33;100397.56;;;11.88;87.46
28004;BME280;15330;51.234;6.754;2023-03-22T08:41:58;100405.94;;;11.85;88.01
28004;BME280;15330;51.234;6.754;2023-03-22T08:44:24;100407.03;;;11.75;87.94
28004;BME280;15330;51.234;6.754;2023-03-22T08:46:50;100404.59;;;11.89;87.88
28004;BME280;15330;51.234;6.754;2023-03-22T08:49:16;100400.16;;;11.96;87.59
28004;BME280;15330;51.234;6.754;2023-03-22T08:51:41;100394.75;;;12.04;87.21
28004;BME280;15330;51.234;6.754;2023-03-22T08:54:06;100393.25;;;12.16;86.15
28004;BME280;15330;51.234;6.754;2023-03-22T08:56:32;100386.50;;;12.20;85.25
28004;BME280;15330;51.234;6.754;2023-03-22T08:59:03;100390.75;;;12.29;83.78
28004;BME280;15330;51.234;6.754;2023-03-22T09:01:29;100390.44;;;12.98;81.00
28004;BME280;15330;51.234;6.754;2023-03-22T09:03:55;100389.19;;;13.00;80.81
28004;BME280;15330;51.234;6.754;2023-03-22T09:06:20;100392.56;;;12.87;80.22
28004;BME280;15330;51.234;6.754;2023-03-22T09:08:46;100392.88;;;13.29;79.63
28004;BME280;15330;51.234;6.754;2023-03-22T09:11:12;100406.00;;;13.59;76.12
28004;BME280;15330;51.234;6.754;2023-03-22T09:13:38;100378.00;;;13.75;74.62
28004;BME280;15330;51.234;6.754;2023-03-22T09:16:05;100385.38;;;13.24;77.15
28004;BME280;15330;51.234;6.754;2023-03-22T09:18:32;100389.25;;;12.85;77.61
28004;BME280;15330;51.234;6.754;2023-03-22T09:20:58;100378.88;;;13.18;77.50
28004;BME280;15330;51.234;6.754;2023-03-22T09:23:23;100372.50;;;13.19;77.32
28004;BME280;15330;51.234;6.754;2023-03-22T09:25:49;100390.22;;;13.14;77.05
28004;BME280;15330;51.234;6.754;2023-03-22T09:28:15;100379.88;;;12.96;76.71
28004;BME280;15330;51.234;6.754;2023-03-22T09:30:41;100379.91;;;12.67;77.68
28004;BME280;15330;51.234;6.754;2023-03-22T09:33:06;100384.47;;;12.66;78.13
28004;BME280;15330;51.234;6.754;2023-03-22T09:35:32;100363.31;;;12.42;79.81
28004;BME280;15330;51.234;6.754;2023-03-22T09:37:58;100377.81;;;12.47;79.84
28004;BME280;15330;51.234;6.754;2023-03-22T09:40:34;100358.41;;;12.45;79.27
28004;BME280;15330;51.234;6.754;2023-03-22T09:43:03;100382.06;;;12.27;79.74
28004;BME280;15330;51.234;6.754;2023-03-22T09:45:36;100380.13;;;12.21;79.95
28004;BME280;15330;51.234;6.754;2023-03-22T09:48:30;100387.53;;;12.34;80.07
28004;BME280;15330;51.234;6.754;2023-03-22T09:51:00;100383.06;;;13.91;75.88
28004;BME280;15330;51.234;6.754;2023-03-22T09:53:27;100386.66;;;13.28;76.79
28004;BME280;15330;51.234;6.754;2023-03-22T09:56:02;100387.50;;;13.99;74.92
28004;BME280;15330;51.234;6.754;2023-03-22T09:58:40;100372.19;;;15.49;68.42
28004;BME280;15330;51.234;6.754;2023-03-22T10:06:22;100374.66;;;13.73;73.65
28004;BME280;15330;51.234;6.754;2023-03-22T10:14:39;100360.47;;;13.79;72.84
28004;BME280;15330;51.234;6.754;2023-03-22T10:17:12;100353.06;;;13.88;72.67
28004;BME280;15330;51.234;6.754;2023-03-22T10:19:52;100373.00;;;13.51;73.94
28004;BME280;15330;51.234;6.754;2023-03-22T10:22:25;100360.81;;;13.27;73.22
28004;BME280;15330;51.234;6.754;2023-03-22T10:24:54;100340.75;;;13.08;73.04
28004;BME280;15330;51.234;6.754;2023-03-22T10:27:22;100350.25;;;14.30;69.71
28004;BME280;15330;51.234;6.754;2023-03-22T10:32:26;100352.41;;;14.14;70.21
28004;BME280;15330;51.234;6.754;2023-03-22T10:34:53;100344.06;;;13.25;73.05
28004;BME280;15330;51.234;6.754;2023-03-22T10:37:22;100360.38;;;13.09;73.33
28004;BME280;15330;51.234;6.754;2023-03-22T10:39:51;100346.13;;;13.08;73.73
28004;BME280;15330;51.234;6.754;2023-03-22T10:42:24;100360.56;;;12.86;74.51
28004;BME280;15330;51.234;6.754;2023-03-22T10:44:53;100352.28;;;12.87;74.63
28004;BME280;15330;51.234;6.754;2023-03-22T10:47:31;100367.91;;;12.99;74.49
28004;BME280;15330;51.234;6.754;2023-03-22T10:49:59;100373.75;;;12.87;74.07
28004;BME280;15330;51.234;6.754;2023-03-22T10:52:37;100362.41;;;12.85;75.10
28004;BME280;15330;51.234;6.754;2023-03-22T10:55:09;100373.16;;;12.85;75.26
28004;BME280;15330;51.234;6.754;2023-03-22T10:57:35;100365.59;;;12.74;75.21
28004;BME280;15330;51.234;6.754;2023-03-22T11:00:03;100355.03;;;12.73;75.61
28004;BME280;15330;51.234;6.754;2023-03-22T11:02:32;100351.69;;;12.71;74.95
28004;BME280;15330;51.234;6.754;2023-03-22T11:05:00;100351.69;;;12.71;75.49
28004;BME280;15330;51.234;6.754;2023-03-22T11:10:18;100363.75;;;12.60;74.90
28004;BME280;15330;51.234;6.754;2023-03-22T11:12:54;100356.34;;;12.62;74.75
28004;BME280;15330;51.234;6.754;2023-03-22T11:17:49;100363.25;;;12.71;74.98
28004;BME280;15330;51.234;6.754;2023-03-22T11:20:16;100349.00;;;12.71;74.70
28004;BME280;15330;51.234;6.754;2023-03-22T11:22:45;100355.56;;;12.68;74.87
28004;BME280;15330;51.234;6.754;2023-03-22T11:25:19;100346.50;;;12.69;74.83
28004;BME280;15330;51.234;6.754;2023-03-22T11:27:53;100350.06;;;12.55;75.04
28004;BME280;15330;51.234;6.754;2023-03-22T11:32:47;100329.44;;;12.41;74.55
28004;BME280;15330;51.234;6.754;2023-03-22T11:35:24;100340.72;;;12.51;75.09
28004;BME280;15330;51.234;6.754;2023-03-22T11:37:52;100357.09;;;12.56;74.75
28004;BME280;15330;51.234;6.754;2023-03-22T11:40:24;100351.53;;;12.58;74.57
28004;BME280;15330;51.234;6.754;2023-03-22T11:42:55;100356.53;;;12.61;74.88
28004;BME280;15330;51.234;6.754;2023-03-22T11:45:31;100354.84;;;12.74;74.86
28004;BME280;15330;51.234;6.754;2023-03-22T11:48:01;100341.84;;;12.93;74.21
28004;BME280;15330;51.234;6.754;2023-03-22T11:50:31;100334.28;;;12.81;73.88
28004;BME280;15330;51.234;6.754;2023-03-22T11:53:04;100328.91;;;12.81;73.83
28004;BME280;15330;51.234;6.754;2023-03-22T11:55:33;100330.59;;;13.04;73.26
28004;BME280;15330;51.234;6.754;2023-03-22T11:58:02;100334.44;;;12.95;72.47
28004;BME280;15330;51.234;6.754;2023-03-22T12:00:29;100329.06;;;12.95;71.98
28004;BME280;15330;51.234;6.754;2023-03-22T12:03:03;100351.31;;;12.74;71.61
28004;BME280;15330;51.234;6.754;2023-03-22T12:05:32;100329.84;;;12.74;71.50
28004;BME280;15330;51.234;6.754;2023-03-22T12:08:02;100322.06;;;12.79;71.39
28004;BME280;15330;51.234;6.754;2023-03-22T12:10:31;100320.19;;;12.79;71.92
28004;BME280;15330;51.234;6.754;2023-03-22T12:13:03;100323.16;;;12.84;72.03
28004;BME280;15330;51.234;6.754;2023-03-22T12:15:32;100331.94;;;12.93;71.33
28004;BME280;15330;51.234;6.754;2023-03-22T12:18:05;100307.25;;;12.83;71.56
28004;BME280;15330;51.234;6.754;2023-03-22T12:20:54;100342.91;;;12.98;70.98
28004;BME280;15330;51.234;6.754;2023-03-22T12:23:22;100313.06;;;12.86;71.03
28004;BME280;15330;51.234;6.754;2023-03-22T12:25:52;100312.13;;;12.94;71.66
28004;BME280;15330;51.234;6.754;2023-03-22T12:28:27;100311.78;;;12.82;72.38
28004;BME280;15330;51.234;6.754;2023-03-22T12:30:57;100303.22;;;12.94;72.09
28004;BME280;15330;51.234;6.754;2023-03-22T12:33:28;100301.88;;;12.83;71.74
28004;BME280;15330;51.234;6.754;2023-03-22T12:35:58;100303.84;;;12.74;71.72
28004;BME280;15330;51.234;6.754;2023-03-22T12:41:01;100312.56;;;12.76;72.31
28004;BME280;15330;51.234;6.754;2023-03-22T12:43:57;100320.38;;;12.78;72.17
28004;BME280;15330;51.234;6.754;2023-03-22T12:46:48;100310.22;;;12.73;72.68
28004;BME280;15330;51.234;6.754;2023-03-22T12:49:40;100314.97;;;12.71;72.74
28004;BME280;15330;51.234;6.754;2023-03-22T12:52:16;100320.78;;;12.75;72.26
28004;BME280;15330;51.234;6.754;2023-03-22T12:54:44;100312.47;;;12.70;72.57
28004;BME280;15330;51.234;6.754;2023-03-22T12:57:13;100317.91;;;12.76;72.72
28004;BME280;15330;51.234;6.754;2023-03-22T12:59:41;100315.78;;;12.72;72.95
28004;BME280;15330;51.234;6.754;2023-03-22T13:02:25;100319.78;;;12.76;72.82
28004;BME280;15330;51.234;6.754;2023-03-22T13:04:56;100306.13;;;12.77;73.02
28004;BME280;15330;51.234;6.754;2023-03-22T13:09:58;100317.59;;;12.86;73.51
28004;BME280;15330;51.234;6.754;2023-03-22T13:12:27;100312.03;;;12.87;73.66
28004;BME280;15330;51.234;6.754;2023-03-22T13:15:00;100313.25;;;12.85;73.84
28004;BME280;15330;51.234;6.754;2023-03-22T13:28:02;100309.56;;;12.86;74.92
28004;BME280;15330;51.234;6.754;2023-03-22T13:30:34;100299.00;;;12.84;74.60
28004;BME280;15330;51.234;6.754;2023-03-22T13:33:24;100294.47;;;12.85;75.08
28004;BME280;15330;51.234;6.754;2023-03-22T13:35:50;100295.84;;;12.81;75.44
28004;BME280;15330;51.234;6.754;2023-03-22T13:38:37;100297.34;;;12.83;75.27
28004;BME280;15330;51.234;6.754;2023-03-22T14:01:59;100289.47;;;12.82;76.80
28004;BME280;15330;51.234;6.754;2023-03-22T14:07:42;100274.84;;;12.84;77.05
28004;BME280;15330;51.234;6.754;2023-03-22T14:10:23;100273.81;;;12.85;77.05
28004;BME280;15330;51.234;6.754;2023-03-22T14:12:50;100267.69;;;12.92;76.81
28004;BME280;15330;51.234;6.754;2023-03-22T14:15:21;100258.97;;;12.90;76.52
28004;BME280;15330;51.234;6.754;2023-03-22T14:17:55;100259.06;;;12.96;76.59
28004;BME280;15330;51.234;6.754;2023-03-22T14:20:24;100261.66;;;12.90;76.79
28004;BME280;15330;51.234;6.754;2023-03-22T14:22:58;100254.22;;;12.85;77.43
28004;BME280;15330;51.234;6.754;2023-03-22T14:25:28;100262.91;;;12.87;77.60
28004;BME280;15330;51.234;6.754;2023-03-22T14:27:55;100249.47;;;12.87;77.52
28004;BME280;15330;51.234;6.754;2023-03-22T14:33:00;100248.13;;;12.76;77.86
28004;BME280;15330;51.234;6.754;2023-03-22T14:35:40;100246.53;;;12.82;78.24
28004;BME280;15330;51.234;6.754;2023-03-22T14:38:15;100242.63;;;12.84;78.39